sensor_id;sensor_type;location;lat;lon;timestamp;P1;durP1;ratioP1;P2;durP2;ratioP2
3155;SDS011;1588;50.892;7.082;2022-11-15T00:01:06;16.17;;;7.50;;
3155;SDS011;1588;50.892;7.082;2022-11-15T00:06:12;11.60;;;6.70;;
3155;SDS011;1588;50.892;7.082;2022-11-15T00:11:24;11.17;;;6.50;;
3155;SDS011;1588;50.892;7.082;2022-11-15T00:16:27;15.90;;;6.73;;
3155;SDS011;1588;50.892;7.082;2022-11-15T00:21:31;16.53;;;5.93;;
3155;SDS011;1588;50.892;7.082;2022-11-15T00:26:35;12.37;;;5.73;;
3155;SDS011;1588;50.892;7.082;2022-11-15T00:31:37;12.40;;;6.70;;
3155;SDS011;1588;50.892;7.082;2022-11-15T00:36:40;11.00;;;6.33;;
3155;SDS011;1588;50.892;7.082;2022-11-15T00:41:44;11.50;;;5.90;;
3155;SDS011;1588;50.892;7.082;2022-11-15T00:46:46;10.97;;;6.07;;
3155;SDS011;1588;50.892;7.082;2022-11-15T00:51:48;15.03;;;6.10;;
3155;SDS011;1588;50.892;7.082;2022-11-15T00:56:55;10.63;;;6.70;;
3155;SDS011;1588;50.892;7.082;2022-11-15T01:01:58;17.40;;;7.80;;
3155;SDS011;1588;50.892;7.082;2022-11-15T01:07:00;12.90;;;6.60;;
3155;SDS011;1588;50.892;7.082;2022-11-15T01:12:04;14.37;;;7.40;;
3155;SDS011;1588;50.892;7.082;2022-11-15T01:17:08;10.83;;;5.97;;
3155;SDS011;1588;50.892;7.082;2022-11-15T01:22:10;19.80;;;7.60;;
3155;SDS011;1588;50.892;7.082;2022-11-15T01:27:14;14.07;;;7.00;;
3155;SDS011;1588;50.892;7.082;2022-11-15T01:32:16;13.90;;;6.30;;
3155;SDS011;1588;50.892;7.082;2022-11-15T01:37:19;16.93;;;6.57;;
3155;SDS011;1588;50.892;7.082;2022-11-15T01:42:22;17.80;;;6.90;;
3155;SDS011;1588;50.892;7.082;2022-11-15T01:47:25;8.90;;;5.80;;
3155;SDS011;1588;50.892;7.082;2022-11-15T01:52:32;16.53;;;7.40;;
3155;SDS011;1588;50.892;7.082;2022-11-15T01:57:38;11.33;;;7.07;;
3155;SDS011;1588;50.892;7.082;2022-11-15T02:02:43;16.47;;;7.30;;
3155;SDS011;1588;50.892;7.082;2022-11-15T02:07:45;11.90;;;6.40;;
3155;SDS011;1588;50.892;7.082;2022-11-15T02:12:51;11.47;;;6.80;;
3155;SDS011;1588;50.892;7.082;2022-11-15T02:18:02;12.20;;;6.63;;
3155;SDS011;1588;50.892;7.082;2022-11-15T02:23:27;14.97;;;6.27;;
3155;SDS011;1588;50.892;7.082;2022-11-15T02:28:50;14.93;;;6.97;;
3155;SDS011;1588;50.892;7.082;2022-11-15T02:34:03;15.23;;;6.70;;
3155;SDS011;1588;50.892;7.082;2022-11-15T02:39:20;11.50;;;5.80;;
3155;SDS011;1588;50.892;7.082;2022-11-15T02:44:30;9.17;;;5.40;;
3155;SDS011;1588;50.892;7.082;2022-11-15T02:49:38;13.07;;;6.60;;
3155;SDS011;1588;50.892;7.082;2022-11-15T02:54:52;10.10;;;6.07;;
3155;SDS011;1588;50.892;7.082;2022-11-15T03:00:03;9.50;;;5.63;;
3155;SDS011;1588;50.892;7.082;2022-11-15T03:05:12;10.43;;;5.90;;
3155;SDS011;1588;50.892;7.082;2022-11-15T03:10:22;11.43;;;5.23;;
3155;SDS011;1588;50.892;7.082;2022-11-15T03:15:29;9.83;;;5.40;;
3155;SDS011;1588;50.892;7.082;2022-11-15T03:20:34;10.23;;;5.00;;
3155;SDS011;1588;50.892;7.082;2022-11-15T03:25:38;11.00;;;4.90;;
3155;SDS011;1588;50.892;7.082;2022-11-15T03:30:44;11.67;;;5.70;;
3155;SDS011;1588;50.892;7.082;2022-11-15T03:35:50;8.87;;;5.07;;
3155;SDS011;1588;50.892;7.082;2022-11-15T03:40:58;18.60;;;5.70;;
3155;SDS011;1588;50.892;7.082;2022-11-15T03:46:07;11.53;;;5.20;;
3155;SDS011;1588;50.892;7.082;2022-11-15T03:51:16;12.97;;;5.03;;
3155;SDS011;1588;50.892;7.082;2022-11-15T03:56:18;10.03;;;5.80;;
3155;SDS011;1588;50.892;7.082;2022-11-15T04:01:21;7.77;;;5.30;;
3155;SDS011;1588;50.892;7.082;2022-11-15T04:06:24;11.00;;;5.93;;
3155;SDS011;1588;50.892;7.082;2022-11-15T04:11:26;11.60;;;5.33;;
3155;SDS011;1588;50.892;7.082;2022-11-15T04:16:29;13.00;;;5.60;;
3155;SDS011;1588;50.892;7.082;2022-11-15T04:21:32;8.37;;;5.20;;
3155;SDS011;1588;50.892;7.082;2022-11-15T04:26:52;11.70;;;5.60;;
3155;SDS011;1588;50.892;7.082;2022-11-15T04:31:54;10.20;;;5.90;;
3155;SDS011;1588;50.892;7.082;2022-11-15T04:36:58;9.77;;;4.93;;
3155;SDS011;1588;50.892;7.082;2022-11-15T04:42:16;9.23;;;5.23;;
3155;SDS011;1588;50.892;7.082;2022-11-15T04:47:19;8.97;;;4.97;;
3155;SDS011;1588;50.892;7.082;2022-11-15T04:52:22;11.83;;;5.30;;
3155;SDS011;1588;50.892;7.082;2022-11-15T04:57:24;10.83;;;5.17;;
3155;SDS011;1588;50.892;7.082;2022-11-15T05:02:27;6.60;;;4.10;;
3155;SDS011;1588;50.892;7.082;2022-11-15T05:07:48;7.90;;;4.50;;
3155;SDS011;1588;50.892;7.082;2022-11-15T05:12:56;7.00;;;4.53;;
3155;SDS011;1588;50.892;7.082;2022-11-15T05:18:06;6.87;;;4.50;;
3155;SDS011;1588;50.892;7.082;2022-11-15T05:23:10;6.83;;;4.27;;
3155;SDS011;1588;50.892;7.082;2022-11-15T05:28:13;8.17;;;4.03;;
3155;SDS011;1588;50.892;7.082;2022-11-15T05:33:18;6.37;;;4.10;;
3155;SDS011;1588;50.892;7.082;2022-11-15T05:38:22;4.90;;;3.57;;
3155;SDS011;1588;50.892;7.082;2022-11-15T05:43:25;7.77;;;4.43;;
3155;SDS011;1588;50.892;7.082;2022-11-15T05:48:28;6.00;;;3.47;;
3155;SDS011;1588;50.892;7.082;2022-11-15T05:53:32;8.27;;;3.30;;
3155;SDS011;1588;50.892;7.082;2022-11-15T05:58:36;4.70;;;2.87;;
3155;SDS011;1588;50.892;7.082;2022-11-15T06:03:39;6.10;;;3.10;;
3155;SDS011;1588;50.892;7.082;2022-11-15T06:08:43;6.33;;;3.10;;
3155;SDS011;1588;50.892;7.082;2022-11-15T06:13:45;7.53;;;3.77;;
3155;SDS011;1588;50.892;7.082;2022-11-15T06:18:47;5.67;;;3.50;;
3155;SDS011;1588;50.892;7.082;2022-11-15T06:23:51;5.10;;;3.07;;
3155;SDS011;1588;50.892;7.082;2022-11-15T06:28:54;6.13;;;3.00;;
3155;SDS011;1588;50.892;7.082;2022-11-15T06:33:56;8.23;;;3.40;;
3155;SDS011;1588;50.892;7.082;2022-11-15T06:39:00;5.20;;;3.30;;
3155;SDS011;1588;50.892;7.082;2022-11-15T06:44:02;6.27;;;3.50;;
3155;SDS011;1588;50.892;7.082;2022-11-15T06:49:05;4.47;;;3.03;;
3155;SDS011;1588;50.892;7.082;2022-11-15T06:54:09;5.80;;;3.10;;
3155;SDS011;1588;50.892;7.082;2022-11-15T06:59:11;5.90;;;3.13;;
3155;SDS011;1588;50.892;7.082;2022-11-15T07:04:13;5.60;;;3.63;;
3155;SDS011;1588;50.892;7.082;2022-11-15T07:09:17;5.53;;;3.60;;
3155;SDS011;1588;50.892;7.082;2022-11-15T07:14:19;5.97;;;3.30;;
3155;SDS011;1588;50.892;7.082;2022-11-15T07:19:22;7.73;;;4.17;;
3155;SDS011;1588;50.892;7.082;2022-11-15T07:24:25;4.83;;;3.03;;
3155;SDS011;1588;50.892;7.082;2022-11-15T07:29:28;5.43;;;3.10;;
3155;SDS011;1588;50.892;7.082;2022-11-15T07:34:30;13.20;;;2.90;;
3155;SDS011;1588;50.892;7.082;2022-11-15T07:39:34;9.40;;;3.00;;
3155;SDS011;1588;50.892;7.082;2022-11-15T07:44:37;7.70;;;2.53;;
3155;SDS011;1588;50.892;7.082;2022-11-15T07:49:39;4.37;;;2.83;;
3155;SDS011;1588;50.892;7.082;2022-11-15T07:54:43;3.33;;;2.70;;
3155;SDS011;1588;50.892;7.082;2022-11-15T07:59:45;6.73;;;2.97;;
3155;SDS011;1588;50.892;7.082;2022-11-15T08:04:49;4.57;;;2.90;;
3155;SDS011;1588;50.892;7.082;2022-11-15T08:09:53;5.10;;;2.80;;
3155;SDS011;1588;50.892;7.082;2022-11-15T08:14:55;5.17;;;2.80;;
3155;SDS011;1588;50.892;7.082;2022-11-15T08:20:00;4.10;;;2.70;;
3155;SDS011;1588;50.892;7.082;2022-11-15T08:25:05;4.33;;;2.13;;
3155;SDS011;1588;50.892;7.082;2022-11-15T08:30:08;2.87;;;2.13;;
3155;SDS011;1588;50.892;7.082;2022-11-15T08:35:11;8.70;;;2.30;;
3155;SDS011;1588;50.892;7.082;2022-11-15T08:40:20;6.20;;;2.60;;
3155;SDS011;1588;50.892;7.082;2022-11-15T08:45:22;6.53;;;2.43;;
3155;SDS011;1588;50.892;7.082;2022-11-15T08:50:25;3.13;;;2.20;;
3155;SDS011;1588;50.892;7.082;2022-11-15T08:55:28;3.97;;;2.03;;
3155;SDS011;1588;50.892;7.082;2022-11-15T09:00:30;4.20;;;2.43;;
3155;SDS011;1588;50.892;7.082;2022-11-15T09:05:43;4.50;;;2.13;;
3155;SDS011;1588;50.892;7.082;2022-11-15T09:11:02;4.43;;;2.10;;
3155;SDS011;1588;50.892;7.082;2022-11-15T09:16:26;3.60;;;2.07;;
3155;SDS011;1588;50.892;7.082;2022-11-15T09:21:28;6.80;;;2.80;;
3155;SDS011;1588;50.892;7.082;2022-11-15T09:26:38;2.50;;;1.83;;
3155;SDS011;1588;50.892;7.082;2022-11-15T09:37:38;2.47;;;1.70;;
3155;SDS011;1588;50.892;7.082;2022-11-15T09:42:48;2.00;;;1.53;;
3155;SDS011;1588;50.892;7.082;2022-11-15T09:48:15;2.83;;;1.13;;
3155;SDS011;1588;50.892;7.082;2022-11-15T09:53:40;3.77;;;1.30;;
3155;SDS011;1588;50.892;7.082;2022-11-15T09:58:51;2.07;;;1.17;;
3155;SDS011;1588;50.892;7.082;2022-11-15T10:03:59;1.73;;;1.30;;
3155;SDS011;1588;50.892;7.082;2022-11-15T10:09:03;3.00;;;1.60;;
3155;SDS011;1588;50.892;7.082;2022-11-15T10:14:15;3.27;;;0.90;;
3155;SDS011;1588;50.892;7.082;2022-11-15T10:19:21;2.20;;;0.93;;
3155;SDS011;1588;50.892;7.082;2022-11-15T10:24:33;1.50;;;0.87;;
3155;SDS011;1588;50.892;7.082;2022-11-15T10:29:44;3.23;;;0.90;;
3155;SDS011;1588;50.892;7.082;2022-11-15T10:34:53;1.23;;;0.70;;
3155;SDS011;1588;50.892;7.082;2022-11-15T10:40:02;3.43;;;0.80;;
3155;SDS011;1588;50.892;7.082;2022-11-15T10:45:22;0.80;;;0.70;;
3155;SDS011;1588;50.892;7.082;2022-11-15T10:50:27;0.93;;;0.80;;
3155;SDS011;1588;50.892;7.082;2022-11-15T10:55:31;3.00;;;1.00;;
3155;SDS011;1588;50.892;7.082;2022-11-15T11:00:39;2.20;;;0.80;;
3155;SDS011;1588;50.892;7.082;2022-11-15T11:05:49;1.93;;;0.90;;
3155;SDS011;1588;50.892;7.082;2022-11-15T11:11:09;5.23;;;0.90;;
3155;SDS011;1588;50.892;7.082;2022-11-15T11:22:09;1.27;;;1.17;;
3155;SDS011;1588;50.892;7.082;2022-11-15T11:27:22;1.13;;;0.80;;
3155;SDS011;1588;50.892;7.082;2022-11-15T11:32:49;0.83;;;0.70;;
3155;SDS011;1588;50.892;7.082;2022-11-15T11:38:10;1.90;;;1.03;;
3155;SDS011;1588;50.892;7.082;2022-11-15T11:43:28;1.37;;;0.80;;
3155;SDS011;1588;50.892;7.082;2022-11-15T11:48:41;2.20;;;0.93;;
3155;SDS011;1588;50.892;7.082;2022-11-15T11:53:47;1.33;;;0.70;;
3155;SDS011;1588;50.892;7.082;2022-11-15T11:59:11;2.33;;;0.80;;
3155;SDS011;1588;50.892;7.082;2022-11-15T12:04:27;1.87;;;0.83;;
3155;SDS011;1588;50.892;7.082;2022-11-15T12:10:39;3.17;;;1.13;;
3155;SDS011;1588;50.892;7.082;2022-11-15T12:21:30;3.53;;;1.00;;
3155;SDS011;1588;50.892;7.082;2022-11-15T12:26:49;0.93;;;0.83;;
3155;SDS011;1588;50.892;7.082;2022-11-15T12:32:18;0.90;;;0.70;;
3155;SDS011;1588;50.892;7.082;2022-11-15T12:37:44;1.63;;;0.87;;
3155;SDS011;1588;50.892;7.082;2022-11-15T12:42:59;2.07;;;0.90;;
3155;SDS011;1588;50.892;7.082;2022-11-15T12:48:45;2.00;;;1.07;;
3155;SDS011;1588;50.892;7.082;2022-11-15T12:54:00;4.80;;;1.40;;
3155;SDS011;1588;50.892;7.082;2022-11-15T12:59:48;1.33;;;1.00;;
3155;SDS011;1588;50.892;7.082;2022-11-15T13:10:35;3.23;;;1.57;;
3155;SDS011;1588;50.892;7.082;2022-11-15T13:15:54;4.50;;;1.80;;
3155;SDS011;1588;50.892;7.082;2022-11-15T13:21:00;4.97;;;1.70;;
3155;SDS011;1588;50.892;7.082;2022-11-15T13:26:31;4.40;;;1.87;;
3155;SDS011;1588;50.892;7.082;2022-11-15T13:31:35;3.53;;;2.03;;
3155;SDS011;1588;50.892;7.082;2022-11-15T13:36:42;6.47;;;1.90;;
3155;SDS011;1588;50.892;7.082;2022-11-15T13:41:47;3.90;;;1.83;;
3155;SDS011;1588;50.892;7.082;2022-11-15T13:47:01;8.70;;;1.60;;
3155;SDS011;1588;50.892;7.082;2022-11-15T13:52:09;3.97;;;2.20;;
3155;SDS011;1588;50.892;7.082;2022-11-15T13:57:20;3.00;;;2.10;;
3155;SDS011;1588;50.892;7.082;2022-11-15T14:02:25;7.10;;;1.93;;
3155;SDS011;1588;50.892;7.082;2022-11-15T14:07:38;5.43;;;2.20;;
3155;SDS011;1588;50.892;7.082;2022-11-15T14:13:28;1.93;;;1.77;;
3155;SDS011;1588;50.892;7.082;2022-11-15T14:18:41;3.33;;;1.90;;
3155;SDS011;1588;50.892;7.082;2022-11-15T14:23:48;10.80;;;2.30;;
3155;SDS011;1588;50.892;7.082;2022-11-15T14:28:57;5.73;;;2.17;;
3155;SDS011;1588;50.892;7.082;2022-11-15T14:34:42;2.70;;;1.93;;
3155;SDS011;1588;50.892;7.082;2022-11-15T14:39:48;2.97;;;2.00;;
3155;SDS011;1588;50.892;7.082;2022-11-15T14:44:57;2.60;;;1.87;;
3155;SDS011;1588;50.892;7.082;2022-11-15T14:50:00;3.77;;;2.00;;
3155;SDS011;1588;50.892;7.082;2022-11-15T14:55:15;5.00;;;1.90;;
3155;SDS011;1588;50.892;7.082;2022-11-15T15:00:35;2.30;;;1.70;;
3155;SDS011;1588;50.892;7.082;2022-11-15T15:05:49;6.80;;;1.77;;
3155;SDS011;1588;50.892;7.082;2022-11-15T15:11:03;4.60;;;1.60;;
3155;SDS011;1588;50.892;7.082;2022-11-15T15:16:22;5.20;;;2.00;;
3155;SDS011;1588;50.892;7.082;2022-11-15T15:21:54;3.70;;;1.53;;
3155;SDS011;1588;50.892;7.082;2022-11-15T15:27:12;2.13;;;1.53;;
3155;SDS011;1588;50.892;7.082;2022-11-15T15:58:13;2.77;;;1.83;;
3155;SDS011;1588;50.892;7.082;2022-11-15T16:03:15;3.47;;;1.90;;
3155;SDS011;1588;50.892;7.082;2022-11-15T16:08:18;2.30;;;1.60;;
3155;SDS011;1588;50.892;7.082;2022-11-15T16:13:25;2.80;;;1.70;;
3155;SDS011;1588;50.892;7.082;2022-11-15T16:18:30;2.60;;;1.83;;
3155;SDS011;1588;50.892;7.082;2022-11-15T16:23:37;2.77;;;1.87;;
3155;SDS011;1588;50.892;7.082;2022-11-15T16:28:43;5.70;;;1.67;;
3155;SDS011;1588;50.892;7.082;2022-11-15T16:33:46;6.70;;;2.03;;
3155;SDS011;1588;50.892;7.082;2022-11-15T16:38:49;3.17;;;1.77;;
3155;SDS011;1588;50.892;7.082;2022-11-15T16:43:53;6.43;;;1.53;;
3155;SDS011;1588;50.892;7.082;2022-11-15T16:48:58;15.20;;;3.10;;
3155;SDS011;1588;50.892;7.082;2022-11-15T16:54:07;4.30;;;2.20;;
3155;SDS011;1588;50.892;7.082;2022-11-15T16:59:23;2.87;;;1.53;;
3155;SDS011;1588;50.892;7.082;2022-11-15T17:04:32;3.70;;;2.07;;
3155;SDS011;1588;50.892;7.082;2022-11-15T17:09:34;3.27;;;1.90;;
3155;SDS011;1588;50.892;7.082;2022-11-15T17:14:39;4.10;;;1.90;;
3155;SDS011;1588;50.892;7.082;2022-11-15T17:19:43;4.03;;;2.20;;
3155;SDS011;1588;50.892;7.082;2022-11-15T17:24:53;4.43;;;2.27;;
3155;SDS011;1588;50.892;7.082;2022-11-15T17:30:00;5.10;;;1.80;;
3155;SDS011;1588;50.892;7.082;2022-11-15T17:35:13;7.30;;;4.97;;
3155;SDS011;1588;50.892;7.082;2022-11-15T17:40:16;3.13;;;1.90;;
3155;SDS011;1588;50.892;7.082;2022-11-15T17:45:20;7.80;;;2.27;;
3155;SDS011;1588;50.892;7.082;2022-11-15T17:50:22;3.20;;;2.10;;
3155;SDS011;1588;50.892;7.082;2022-11-15T17:55:35;3.80;;;2.40;;
3155;SDS011;1588;50.892;7.082;2022-11-15T18:00:39;4.83;;;2.90;;
3155;SDS011;1588;50.892;7.082;2022-11-15T18:05:41;11.07;;;3.03;;
3155;SDS011;1588;50.892;7.082;2022-11-15T18:10:45;5.93;;;2.60;;
3155;SDS011;1588;50.892;7.082;2022-11-15T18:15:49;5.30;;;2.67;;
3155;SDS011;1588;50.892;7.082;2022-11-15T18:21:02;4.50;;;2.93;;
3155;SDS011;1588;50.892;7.082;2022-11-15T18:26:06;11.40;;;4.10;;
3155;SDS011;1588;50.892;7.082;2022-11-15T18:31:13;8.47;;;4.20;;
3155;SDS011;1588;50.892;7.082;2022-11-15T18:36:20;8.77;;;4.13;;
3155;SDS011;1588;50.892;7.082;2022-11-15T18:41:31;6.50;;;3.87;;
3155;SDS011;1588;50.892;7.082;2022-11-15T18:46:37;9.60;;;5.57;;
3155;SDS011;1588;50.892;7.082;2022-11-15T18:51:40;11.53;;;7.93;;
3155;SDS011;1588;50.892;7.082;2022-11-15T18:56:46;10.13;;;6.23;;
3155;SDS011;1588;50.892;7.082;2022-11-15T19:01:50;9.37;;;6.37;;
3155;SDS011;1588;50.892;7.082;2022-11-15T19:06:52;9.40;;;5.03;;
3155;SDS011;1588;50.892;7.082;2022-11-15T19:11:55;9.40;;;6.40;;
3155;SDS011;1588;50.892;7.082;2022-11-15T19:17:00;10.10;;;5.80;;
3155;SDS011;1588;50.892;7.082;2022-11-15T19:22:03;12.33;;;5.83;;
3155;SDS011;1588;50.892;7.082;2022-11-15T19:27:09;10.77;;;5.47;;
3155;SDS011;1588;50.892;7.082;2022-11-15T19:32:15;16.10;;;7.00;;
3155;SDS011;1588;50.892;7.082;2022-11-15T19:37:18;8.47;;;6.00;;
3155;SDS011;1588;50.892;7.082;2022-11-15T19:42:20;9.73;;;5.97;;
3155;SDS011;1588;50.892;7.082;2022-11-15T19:47:24;12.47;;;7.20;;
3155;SDS011;1588;50.892;7.082;2022-11-15T19:52:27;13.40;;;6.90;;
3155;SDS011;1588;50.892;7.082;2022-11-15T19:57:30;12.33;;;7.00;;
3155;SDS011;1588;50.892;7.082;2022-11-15T20:02:34;12.23;;;6.97;;
3155;SDS011;1588;50.892;7.082;2022-11-15T20:07:36;14.13;;;6.90;;
3155;SDS011;1588;50.892;7.082;2022-11-15T20:12:39;9.10;;;5.83;;
3155;SDS011;1588;50.892;7.082;2022-11-15T20:17:43;11.83;;;7.20;;
3155;SDS011;1588;50.892;7.082;2022-11-15T20:22:45;12.20;;;7.67;;
3155;SDS011;1588;50.892;7.082;2022-11-15T20:27:52;12.20;;;6.90;;
3155;SDS011;1588;50.892;7.082;2022-11-15T20:32:56;11.60;;;7.00;;
3155;SDS011;1588;50.892;7.082;2022-11-15T20:37:58;19.67;;;7.33;;
3155;SDS011;1588;50.892;7.082;2022-11-15T20:43:07;13.70;;;6.70;;
3155;SDS011;1588;50.892;7.082;2022-11-15T20:48:35;11.70;;;6.83;;
3155;SDS011;1588;50.892;7.082;2022-11-15T20:53:38;35.20;;;7.33;;
3155;SDS011;1588;50.892;7.082;2022-11-15T20:58:45;12.67;;;7.00;;
3155;SDS011;1588;50.892;7.082;2022-11-15T21:03:51;13.80;;;7.33;;
3155;SDS011;1588;50.892;7.082;2022-11-15T21:08:54;18.57;;;7.27;;
3155;SDS011;1588;50.892;7.082;2022-11-15T21:14:17;15.53;;;7.77;;
3155;SDS011;1588;50.892;7.082;2022-11-15T21:19:21;15.83;;;6.97;;
3155;SDS011;1588;50.892;7.082;2022-11-15T21:24:27;11.13;;;6.60;;
3155;SDS011;1588;50.892;7.082;2022-11-15T21:29:29;12.73;;;6.93;;
3155;SDS011;1588;50.892;7.082;2022-11-15T21:34:42;12.83;;;6.80;;
3155;SDS011;1588;50.892;7.082;2022-11-15T21:39:47;13.83;;;7.23;;
3155;SDS011;1588;50.892;7.082;2022-11-15T21:44:49;10.83;;;6.07;;
3155;SDS011;1588;50.892;7.082;2022-11-15T21:49:55;12.43;;;6.30;;
3155;SDS011;1588;50.892;7.082;2022-11-15T21:54:58;13.13;;;5.87;;
3155;SDS011;1588;50.892;7.082;2022-11-15T22:00:01;9.40;;;6.00;;
3155;SDS011;1588;50.892;7.082;2022-11-15T22:05:34;8.83;;;4.70;;
3155;SDS011;1588;50.892;7.082;2022-11-15T22:10:36;10.90;;;5.30;;
3155;SDS011;1588;50.892;7.082;2022-11-15T22:15:39;8.57;;;4.90;;
3155;SDS011;1588;50.892;7.082;2022-11-15T22:20:43;7.83;;;4.60;;
3155;SDS011;1588;50.892;7.082;2022-11-15T22:25:53;8.43;;;4.70;;
3155;SDS011;1588;50.892;7.082;2022-11-15T22:30:59;7.90;;;4.23;;
3155;SDS011;1588;50.892;7.082;2022-11-15T22:36:03;11.90;;;4.63;;
3155;SDS011;1588;50.892;7.082;2022-11-15T22:41:07;7.07;;;4.20;;
3155;SDS011;1588;50.892;7.082;2022-11-15T22:46:09;10.50;;;4.90;;
3155;SDS011;1588;50.892;7.082;2022-11-15T22:51:15;8.20;;;4.90;;
3155;SDS011;1588;50.892;7.082;2022-11-15T22:56:17;12.70;;;5.10;;
3155;SDS011;1588;50.892;7.082;2022-11-15T23:01:22;9.10;;;5.70;;
3155;SDS011;1588;50.892;7.082;2022-11-15T23:06:27;8.10;;;5.00;;
3155;SDS011;1588;50.892;7.082;2022-11-15T23:11:30;12.87;;;5.50;;
3155;SDS011;1588;50.892;7.082;2022-11-15T23:16:50;8.30;;;5.37;;
3155;SDS011;1588;50.892;7.082;2022-11-15T23:21:54;9.83;;;5.60;;
3155;SDS011;1588;50.892;7.082;2022-11-15T23:27:13;14.40;;;5.70;;
3155;SDS011;1588;50.892;7.082;2022-11-15T23:32:19;8.60;;;5.33;;
3155;SDS011;1588;50.892;7.082;2022-11-15T23:37:42;11.80;;;5.80;;
3155;SDS011;1588;50.892;7.082;2022-11-15T23:42:47;12.40;;;6.20;;
3155;SDS011;1588;50.892;7.082;2022-11-15T23:47:50;9.90;;;6.07;;
3155;SDS011;1588;50.892;7.082;2022-11-15T23:52:54;13.33;;;5.67;;
3155;SDS011;1588;50.892;7.082;2022-11-15T23:57:56;14.30;;;6.17;;
